• Join FlightAware (Why Join?)
  • Login
  • US Flag 
01:31PM EST


 

Airport Tracker/Info


-or-


 

Live Flight TrackerFlight Track Log ✈ BOE1 ✈ 06-Mar-2010 ✈ KBFI - KBFI

Flight Track Log - Related Links

Times and Time Zones

All times are in EST time to prevent confusion due to time zone crossing. See the BOE1 flight status page for this flight to view local times or setup timezone preferences in your user account.

Time Position Orientation Groundspeed Altitude Reporting Facility
EST Latitude Longitude Course Direction KTS MPH feet Rate Location/Type
04:00PM 47.5444 -122.3160 326° Northwest 160 184 1,300  Level Seattle Center
04:00PM 47.5636 -122.3350 325° Northwest 186 214 1,900 1,740 Climbing Seattle Center
04:01PM 47.5939 -122.3670 310° West 226 260 3,100 3,240 Climbing Seattle Center
04:02PM 47.6375 -122.4430 323° Northwest 240 276 7,200 3,360 Climbing Seattle Center
04:03PM 47.6936 -122.5050 28° Northeast 254 292 10,000 1,320 Climbing Seattle Center
04:04PM 47.7633 -122.4500 35° Northeast 282 325 10,000  Level Seattle Center
04:05PM 47.8297 -122.3820 35° Northeast 286 329 10,000  Level Seattle Center
04:06PM 47.8967 -122.3120 39° Northeast 291 335 10,100  Climbing Seattle Center
04:07PM 47.9600 -122.2360 23° Northeast 292 336 10,000 180 Descending Seattle Center
04:08PM 48.0350 -122.1880 24° Northeast 309 356 10,500 240 Climbing Seattle Center
04:09PM 48.1167 -122.1330 35° Northeast 337 388 10,500 120 Level Seattle Center
04:10PM 48.1894 -122.0560 98° East 336 387 10,800 240 Climbing Seattle Center
04:11PM 48.1772 -121.9190 108° East 332 382 11,000 60 Climbing Seattle Center
04:12PM 48.1492 -121.7870 108° East 335 386 11,000  Level Seattle Center
04:13PM 48.1139 -121.6270 107° East 336 387 11,100 180 Climbing Seattle Center
04:14PM 48.0864 -121.4920 99° East 338 389 11,400 660 Climbing Seattle Center
04:15PM 48.0714 -121.3570 94° East 339 390 12,500 780 Climbing Seattle Center
04:16PM 48.0644 -121.2180 93° East 342 394 13,000 180 Climbing Seattle Center
04:17PM 48.0594 -121.0760 94° East 345 397 12,900  Descending Seattle Center
04:18PM 48.0528 -120.9340 95° East 347 399 13,000  Climbing Seattle Center
04:19PM 48.0436 -120.7770 94° East 345 397 13,000 -780 Level Seattle Center
04:20PM 48.0367 -120.6350 95° East 345 397 11,500 -1,440 Descending Seattle Center
04:21PM 48.0286 -120.4940 94° East 343 395 10,100 -780 Descending Seattle Center
04:22PM 48.0222 -120.3570 92° East 337 388 10,000  Descending Seattle Center
04:23PM 48.0186 -120.2170 91° East 337 388 10,200 60 Climbing Seattle Center
04:24PM 48.0172 -120.0770 91° East 337 388 10,200 60 Level Seattle Center
04:25PM 48.0158 -119.9360 92° East 338 389 10,400  Climbing Seattle Center
04:26PM 48.0125 -119.7670 95° East 341 392 10,200 -240 Descending Seattle Center
04:27PM 48.0047 -119.6290 97° East 338 389 10,000 -60 Descending Seattle Center
04:28PM 47.9939 -119.4910 95° East 336 387 10,100  Climbing Seattle Center
04:29PM 47.9864 -119.3520 92° East 337 388 10,100  Level Seattle Center
04:30PM 47.9828 -119.2130 93° East 335 386 10,100  Level Seattle Center
04:31PM 47.9781 -119.0730 92° East 337 388 10,100  Level Seattle Center
04:32PM 47.9747 -118.9330 91° East 338 389 10,100 -60 Level Seattle Center
04:33PM 47.9728 -118.7900 102° East 344 396 10,000 -120 Descending Seattle Center
04:34PM 47.9531 -118.6540 100° East 341 392 9,900 -60 Descending Seattle Center
04:35PM 47.9350 -118.5050 100° East 364 419 9,900 60 Level Seattle Center
04:36PM 47.9167 -118.3580 100° East 363 418 10,100 60 Climbing Seattle Center
04:37PM 47.8986 -118.2100 155° Southeast 364 419 10,100  Level Seattle Center
04:38PM 47.8192 -118.1540 276° West 352 405 10,100  Level Seattle Center
04:39PM 47.8286 -118.2950 292° West 376 433 10,100  Level Seattle Center
04:40PM 47.8672 -118.4400 289° West 378 435 10,200  Climbing Seattle Center
04:41PM 47.9017 -118.5880 284° West 380 437 10,200 -120 Level Seattle Center
04:42PM 47.9281 -118.7450 277° West 395 455 10,000  Descending Seattle Center
04:43PM 47.9422 -118.9080 267° West 404 465 10,300 180 Climbing Seattle Center
04:44PM 47.9367 -119.0750 271° West 399 459 10,400 60 Climbing Seattle Center
04:45PM 47.9394 -119.2410 276° West 406 467 10,500 60 Climbing Seattle Center
04:46PM 47.9506 -119.4040 278° West 402 463 10,600 -180 Climbing Seattle Center
04:47PM 47.9664 -119.5680 280° West 403 464 10,200 -300 Descending Seattle Center
04:48PM 47.9858 -119.7320 282° West 404 465 10,000 -240 Descending Seattle Center
04:49PM 48.0128 -119.9220 283° West 400 460 9,800 -120 Descending Seattle Center
04:50PM 48.0375 -120.0840 283° West 400 460 9,800 540 Level Seattle Center
04:51PM 48.0622 -120.2440 197° South 399 459 11,000 540 Climbing Seattle Center
04:53PM 47.9736 -120.2840 100° East 388 447 11,000 -60 Level Seattle Center
04:54PM 47.9544 -120.1140 96° East 405 466 10,900  Descending Seattle Center
04:55PM 47.9431 -119.9440 87° East 410 472 11,100  Climbing Seattle Center
04:56PM 47.9500 -119.7690 83° East 419 482 11,000 -120 Descending Seattle Center
04:57PM 47.9644 -119.5990 76° East 419 482 10,900 -60 Descending Seattle Center
04:58PM 47.9983 -119.3960 82° East 421 484 10,900  Level Seattle Center
04:59PM 48.0139 -119.2260 102° East 420 483 10,900 600 Level Seattle Center
05:00PM 47.9911 -119.0660 103° East 395 455 12,200 1,740 Climbing Seattle Center
05:01PM 47.9628 -118.8810 102° East 387 445 14,500 2,340 Climbing Seattle Center
05:02PM 47.9389 -118.7110 99° East 413 475 17,100 2,520 Climbing Seattle Center
05:03PM 47.9219 -118.5440 94° East 408 470 19,700 2,280 Climbing Seattle Center
05:04PM 47.9133 -118.3780 94° East 407 468 21,800 1,080 Climbing Seattle Center
05:05PM 47.9053 -118.2120 92° East 404 465 22,000  Climbing Seattle Center
05:06PM 47.9006 -118.0450 92° East 405 466 21,900 -60 Descending Seattle Center
05:07PM 47.8967 -117.8770 101° East 403 464 21,900 -60 Level Seattle Center
05:08PM 47.8744 -117.7140 106° East 402 463 21,800 -60 Descending Seattle Center
05:09PM 47.8442 -117.5540 112° Southeast 400 460 21,800  Level Seattle Center
05:10PM 47.8036 -117.4010 116° Southeast 397 457 21,800  Level Seattle Center
05:11PM 47.7489 -117.2350 79° East 393 452 21,900 60 Climbing Seattle Center
05:12PM 47.7717 -117.0610 16° North 410 472 22,000  Climbing Seattle Center
05:13PM 47.8522 -117.0260 292° West 401 461 22,000  Level Seattle Center
05:14PM 47.8956 -117.1900 271° West 381 438 22,000 60 Level Seattle Center
05:15PM 47.8975 -117.3490 272° West 385 443 22,200  Climbing Seattle Center
05:16PM 47.9019 -117.5070 272° West 384 442 22,000 -180 Descending Seattle Center
05:17PM 47.9050 -117.6650 273° West 384 442 21,900  Descending Seattle Center
05:18PM 47.9100 -117.8230 273° West 384 442 22,000  Climbing Seattle Center
05:19PM 47.9153 -117.9810 274° West 384 442 22,000  Level Seattle Center
05:20PM 47.9233 -118.1620 278° West 452 520 22,000  Level Seattle Center
05:21PM 47.9422 -118.3580 277° West 476 548 22,000  Level Seattle Center
05:22PM 47.9572 -118.5530 274° West 474 545 22,100  Climbing Seattle Center
05:23PM 47.9683 -118.7930 275° West 472 543 22,000 -120 Descending Seattle Center
05:24PM 47.9786 -118.9890 275° West 478 550 21,900 -120 Descending Seattle Center
05:25PM 47.9908 -119.1840 275° West 478 550 21,800  Descending Seattle Center
05:26PM 48.0028 -119.3780 276° West 473 544 21,900 60 Climbing Seattle Center
05:27PM 48.0156 -119.5730 276° West 475 547 22,000  Climbing Seattle Center
05:28PM 48.0283 -119.7680 276° West 474 545 22,000 -60 Level Seattle Center
05:29PM 48.0425 -119.9630 276° West 475 547 21,900  Descending Seattle Center
05:30PM 48.0564 -120.1560 277° West 475 547 22,000  Climbing Seattle Center
05:31PM 48.0717 -120.3530 276° West 477 549 22,000  Level Seattle Center
05:32PM 48.0853 -120.5490 276° West 477 549 22,000 -60 Level Seattle Center
05:33PM 48.0986 -120.7460 276° West 477 549 21,900 -120 Descending Seattle Center
05:34PM 48.1136 -120.9490 276° West 476 548 21,800  Descending Seattle Center
05:35PM 48.1283 -121.1450 277° West 477 549 21,900 60 Climbing Seattle Center
05:36PM 48.1469 -121.3760 275° West 476 548 22,000  Climbing Seattle Center
05:37PM 48.1592 -121.5720 283° West 479 551 22,000  Level Seattle Center
05:39PM 48.1867 -121.7540 341° North 473 544 22,000  Level Seattle Center
05:40PM 48.3019 -121.8120 57° Northeast 492 566 22,000  Level Seattle Center
05:41PM 48.3697 -121.6520 123° Southeast 501 577 22,000  Level Seattle Center
05:42PM 48.3014 -121.4930 122° Southeast 478 550 22,000  Level Seattle Center
05:43PM 48.2283 -121.3200 117° Southeast 497 572 22,100  Climbing Seattle Center
05:44PM 48.1667 -121.1420 116° Southeast 489 563 22,000 -180 Descending Seattle Center
05:45PM 48.0947 -120.9250 116° Southeast 490 564 21,800 -120 Descending Seattle Center
05:46PM 48.0447 -120.7710 110° East 488 562 21,800  Level Seattle Center
05:47PM 47.9983 -120.5810 91° East 493 567 21,800 120 Level Seattle Center
05:48PM 47.9956 -120.3370 92° East 494 568 22,100 60 Climbing Seattle Center
05:49PM 47.9894 -120.1290 93° East 500 575 22,000 -60 Descending Seattle Center
05:50PM 47.9808 -119.9150 94° East 514 592 22,000  Level Seattle Center
05:51PM 47.9703 -119.6980 94° East 524 603 22,000  Level Seattle Center
05:52PM 47.9611 -119.4800 96° East 526 605 22,000 -60 Level Seattle Center
05:53PM 47.9469 -119.2650 96° East 522 601 21,900 -60 Descending Seattle Center
05:54PM 47.9308 -119.0480 97° East 526 605 21,900  Level Seattle Center
05:55PM 47.9128 -118.8290 98° East 531 611 21,900  Level Seattle Center
05:56PM 47.8925 -118.6140 99° East 529 609 22,000  Climbing Seattle Center
05:57PM 47.8706 -118.3980 100° East 528 608 22,000  Level Seattle Center
05:58PM 47.8458 -118.1830 101° East 528 608 22,000  Level Seattle Center
05:59PM 47.8181 -117.9680 102° East 530 610 22,100  Climbing Seattle Center
06:00PM 47.7872 -117.7560 97° East 528 608 22,100 -120 Level Seattle Center
06:01PM 47.7681 -117.5420 95° East 523 602 21,900 -120 Descending Seattle Center
06:02PM 47.7528 -117.2790 93° East 523 602 21,900 60 Level Seattle Center
06:03PM 47.7453 -117.0610 91° East 527 606 22,100  Climbing Seattle Center
06:04PM 47.7414 -116.8450 90° East 526 605 22,000  Descending Seattle Center
06:05PM 47.7406 -116.6610 91° East 527 606 22,100  Climbing Seattle Center
06:06PM 47.7389 -116.4600 92° East 489 563 22,000 -60 Descending Seattle Center
06:07PM 47.7317 -116.2170 90° East 486 559 22,000 180 Level Seattle Center
06:08PM 47.7308 -116.0120 30° Northeast 493 567 22,400 1,620 Climbing Seattle Center
06:09PM 47.8408 -115.9170 316° Northwest 497 572 25,400 3,120 Climbing Seattle Center
06:10PM 47.9267 -116.0430 258° West 475 547 28,800 2,220 Climbing Seattle Center
06:11PM 47.9011 -116.2210 255° West 447 514 30,000 540 Climbing Seattle Center
06:12PM 47.8686 -116.3990 269° West 446 513 30,000  Level Seattle Center
06:13PM 47.8669 -116.5830 271° West 451 519 30,000 -120 Level Seattle Center
06:14PM 47.8694 -116.7660 271° West 446 513 29,800  Descending Seattle Center
06:15PM 47.8706 -116.9480 273° West 446 513 30,000 120 Climbing Seattle Center
06:16PM 47.8772 -117.1710 274° West 447 514 30,100  Climbing Seattle Center
06:17PM 47.8864 -117.3540 276° West 447 514 30,000 -120 Descending Seattle Center
06:18PM 47.8983 -117.5370 276° West 448 516 29,900 -60 Descending Seattle Center
06:19PM 47.9119 -117.7200 276° West 448 516 29,900  Level Seattle Center
06:20PM 47.9242 -117.9030 275° West 448 516 30,000  Climbing Seattle Center
06:21PM 47.9350 -118.0870 276° West 447 514 29,900 -60 Descending Seattle Center
06:22PM 47.9469 -118.2730 275° West 452 520 29,900  Level Seattle Center
06:23PM 47.9575 -118.4580 275° West 449 517 30,000  Climbing Seattle Center
06:24PM 47.9678 -118.6440 275° West 452 520 30,000 -60 Level Seattle Center
06:25PM 47.9789 -118.8440 273° West 481 554 29,900  Descending Seattle Center
06:26PM 47.9864 -119.0840 275° West 494 568 30,000 120 Climbing Seattle Center
06:27PM 47.9978 -119.2840 272° West 486 559 30,200  Climbing Seattle Center
06:28PM 48.0031 -119.4850 272° West 487 560 30,000 -120 Descending Seattle Center
06:29PM 48.0083 -119.6870 274° West 487 560 30,000 -180 Level Seattle Center
06:30PM 48.0181 -119.8880 274° West 488 562 29,700 -60 Descending Seattle Center
06:31PM 48.0275 -120.0900 274° West 489 563 29,900 120 Climbing Seattle Center
06:32PM 48.0372 -120.2930 275° West 490 564 30,000  Climbing Seattle Center
06:33PM 48.0489 -120.4920 275° West 486 559 30,000 -120 Level Seattle Center
06:34PM 48.0600 -120.6930 276° West 486 559 29,800 -60 Descending Seattle Center
06:35PM 48.0744 -120.9180 277° West 487 560 29,900 120 Climbing Seattle Center
06:36PM 48.0906 -121.1160 275° West 487 560 30,100  Climbing Seattle Center
06:37PM 48.1011 -121.3130 292° West 482 555 29,900 -60 Descending Seattle Center
06:38PM 48.1500 -121.4970 359° North 492 566 30,000  Climbing Seattle Center
06:39PM 48.2811 -121.5010 71° East 519 597 29,900  Descending Seattle Center
06:40PM 48.3208 -121.3250 122° Southeast 481 554 30,000  Climbing Seattle Center
06:42PM 48.2389 -121.1320 113° Southeast 459 528 30,000  Level Seattle Center
06:43PM 48.1850 -120.9460 110° East 496 571 30,000 -60 Level Seattle Center
06:44PM 48.1378 -120.7510 110° East 526 605 29,900  Descending Seattle Center
06:45PM 48.0886 -120.5470 110° East 524 603 30,100  Climbing Seattle Center
06:46PM 48.0386 -120.3430 108° East 525 604 29,900 -60 Descending Seattle Center
06:47PM 47.9936 -120.1340 96° East 526 605 30,000  Climbing Seattle Center
06:48PM 47.9786 -119.9130 96° East 530 610 29,900 -120 Descending Seattle Center
06:49PM 47.9639 -119.6930 93° East 532 612 29,800  Descending Seattle Center
06:50PM 47.9556 -119.4730 93° East 531 611 30,000 120 Climbing Seattle Center
06:51PM 47.9461 -119.2100 97° East 535 616 30,100  Climbing Seattle Center
06:52PM 47.9289 -118.9910 100° East 529 609 30,000  Descending Seattle Center
06:53PM 47.9028 -118.7700 106° East 532 612 30,200  Climbing Seattle Center
06:54PM 47.8622 -118.5610 111° Southeast 529 609 30,100 -60 Descending Seattle Center
06:55PM 47.8100 -118.3570 99° East 532 612 30,100  Level Seattle Center
06:56PM 47.7881 -118.1430 90° East 534 615 30,100 120 Level Seattle Center
06:57PM 47.7869 -117.9270 80° East 520 598 30,400 1,080 Climbing Seattle Center
06:58PM 47.8089 -117.7300 80° East 490 564 32,400 2,160 Climbing Seattle Center
06:59PM 47.8314 -117.5310 92° East 486 559 34,800 1,260 Climbing Seattle Center
07:00PM 47.8261 -117.3340 96° East 478 550 35,000  Climbing Seattle Center
07:01PM 47.8131 -117.1400 96° East 473 544 34,800  Descending Seattle Center
07:02PM 47.7975 -116.9290 97° East 476 548 35,000  Climbing Seattle Center
07:03PM 47.7822 -116.7450 83° East 475 547 34,800  Descending Seattle Center
07:04PM 47.7989 -116.5520 25° Northeast 490 564 35,000 60 Climbing Seattle Center
07:05PM 47.9161 -116.4690 325° Northwest 496 571 35,000  Level Seattle Center
07:06PM 48.0136 -116.5730 267° West 455 524 35,000  Level Seattle Center
07:07PM 48.0072 -116.7430 266° West 413 475 35,100 60 Climbing Seattle Center
07:08PM 47.9967 -116.9540 267° West 420 483 35,200  Climbing Seattle Center
07:09PM 47.9903 -117.1260 267° West 420 483 35,200 -60 Level Seattle Center
07:10PM 47.9836 -117.3000 267° West 421 484 35,100 -120 Descending Seattle Center
07:11PM 47.9781 -117.4680 269° West 422 486 35,000 -60 Descending Seattle Center
07:12PM 47.9767 -117.6420 269° West 422 486 35,000 -60 Level Seattle Center
07:13PM 47.9747 -117.8160 268° West 423 487 34,900 -60 Descending Seattle Center
07:14PM 47.9700 -117.9890 266° West 421 484 34,900 60 Level Seattle Center
07:15PM 47.9619 -118.1640 268° West 423 487 35,100 120 Climbing Seattle Center
07:16PM 47.9581 -118.3400 275° West 427 491 35,200  Climbing Seattle Center
07:17PM 47.9686 -118.5150 271° West 417 480 35,100 -120 Descending Seattle Center
07:18PM 47.9706 -118.7330 271° West 454 522 35,000  Descending Seattle Center
07:19PM 47.9717 -118.9260 272° West 461 531 35,100  Climbing Seattle Center
07:20PM 47.9767 -119.1140 276° West 455 524 35,100 -60 Level Seattle Center
07:21PM 47.9906 -119.3050 276° West 461 531 35,000  Descending Seattle Center
07:22PM 48.0042 -119.4950 277° West 462 532 35,100  Climbing Seattle Center
07:23PM 48.0189 -119.6850 276° West 463 533 35,100 -60 Level Seattle Center
07:24PM 48.0328 -119.8770 276° West 466 536 35,000 -60 Descending Seattle Center
07:25PM 48.0461 -120.0670 275° West 463 533 35,000 -60 Level Seattle Center
07:26PM 48.0575 -120.2570 276° West 463 533 34,900 -60 Descending Seattle Center
07:27PM 48.0697 -120.4490 275° West 465 535 34,900  Level Seattle Center
07:28PM 48.0817 -120.6450 275° West 470 541 34,900  Level Seattle Center
07:29PM 48.0928 -120.8520 274° West 473 544 35,000 -120 Climbing Seattle Center
07:30PM 48.1025 -121.0430 275° West 468 539 34,700 -60 Descending Seattle Center
07:31PM 48.1128 -121.2310 275° West 465 535 34,900 60 Climbing Seattle Center
07:32PM 48.1250 -121.4270 272° West 475 547 34,900  Level Seattle Center
07:33PM 48.1306 -121.6280 278° West 488 562 35,000 120 Climbing Seattle Center
07:34PM 48.1519 -121.8630 229° Southwest 491 565 35,200  Climbing Seattle Center
07:35PM 48.0664 -122.0080 162° South 480 552 35,000 -120 Descending Seattle Center
07:36PM 47.9414 -121.9460 106° East 512 589 35,000 -60 Level Seattle Center
07:37PM 47.9036 -121.7450 90° East 529 609 34,900  Descending Seattle Center
07:38PM 47.9028 -121.5260 89° East 533 613 35,000  Climbing Seattle Center
07:39PM 47.9061 -121.3070 88° East 533 613 35,000  Level Seattle Center
07:40PM 47.9119 -121.0860 86° East 539 620 35,000 -240 Level Seattle Center
07:41PM 47.9228 -120.8690 84° East 535 616 34,600 -120 Descending Seattle Center
07:42PM 47.9375 -120.6440 87° East 532 612 34,800 180 Climbing Seattle Center
07:43PM 47.9458 -120.4220 90° East 542 624 35,000 60 Climbing Seattle Center
07:44PM 47.9461 -120.2010 90° East 538 619 35,000  Level Seattle Center
07:45PM 47.9447 -119.9820 92° East 531 611 35,100  Climbing Seattle Center
07:46PM 47.9400 -119.7620 93° East 533 613 35,100  Level Seattle Center
07:47PM 47.9331 -119.5420 92° East 532 612 35,100 240 Level Seattle Center
07:48PM 47.9283 -119.2890 92° East 508 585 35,600 1,080 Climbing Seattle Center
07:49PM 47.9244 -119.0840 86° East 496 571 37,400 1,920 Climbing Seattle Center
07:50PM 47.9336 -118.8830 72° East 483 556 39,600 1,260 Climbing Seattle Center
07:51PM 47.9769 -118.6780 73° East 508 585 40,000 180 Climbing Seattle Center
07:53PM 48.0169 -118.4810 73° East 502 578 40,000  Level Seattle Center
07:54PM 48.0572 -118.2810 74° East 503 579 40,100  Climbing Seattle Center
07:55PM 48.0944 -118.0800 79° East 504 580 40,000  Descending Seattle Center
07:56PM 48.1214 -117.8770 86° East 498 573 40,200 60 Climbing Seattle Center
07:57PM 48.1317 -117.6710 92° East 500 575 40,200  Level Seattle Center
07:58PM 48.1264 -117.4640 106° East 499 574 40,200 -240 Level Seattle Center
07:59PM 48.0897 -117.2670 108° East 495 570 39,800 -300 Descending Seattle Center
08:00PM 48.0478 -117.0760 110° East 485 558 39,700 60 Descending Seattle Center
08:01PM 48.0017 -116.8870 112° Southeast 485 558 40,000 120 Climbing Seattle Center
08:02PM 47.9503 -116.6940 113° Southeast 490 564 40,000 -120 Level Seattle Center
08:03PM 47.8961 -116.5070 119° Southeast 489 563 39,800  Descending Seattle Center
08:04PM 47.8292 -116.3310 179° South 488 562 40,100  Climbing Seattle Center
08:05PM 47.7094 -116.3290 259° West 457 526 39,900 -120 Descending Seattle Center
08:06PM 47.6853 -116.5070 287° West 478 550 39,900  Level Seattle Center
08:07PM 47.7228 -116.6900 286° West 479 551 40,000  Climbing Seattle Center
08:08PM 47.7661 -116.9190 276° West 482 555 40,000  Level Seattle Center
08:09PM 47.7794 -117.1130 278° West 479 551 40,100 -60 Climbing Seattle Center
08:10PM 47.7967 -117.2970 280° West 474 545 39,900 -60 Descending Seattle Center
08:11PM 47.8181 -117.4880 281° West 474 545 40,000  Climbing Seattle Center
08:12PM 47.8433 -117.6800 283° West 475 547 40,000  Level Seattle Center
08:13PM 47.8731 -117.8710 276° West 477 549 40,100  Climbing Seattle Center
08:14PM 47.8856 -118.0650 276° West 474 545 40,000 -60 Descending Seattle Center
08:15PM 47.8997 -118.2610 280° West 477 549 40,000 -60 Level Seattle Center
08:16PM 47.9214 -118.4550 283° West 479 551 39,900  Descending Seattle Center
08:17PM 47.9508 -118.6480 284° West 477 549 40,000  Climbing Seattle Center
08:18PM 47.9828 -118.8390 273° West 475 547 39,900 -60 Descending Seattle Center
08:19PM 47.9889 -119.0350 268° West 474 545 39,900 60 Level Seattle Center
08:20PM 47.9828 -119.2720 273° West 481 554 40,100 60 Climbing Seattle Center
08:21PM 47.9892 -119.4720 278° West 484 557 40,100 -60 Level Seattle Center
08:22PM 48.0078 -119.6770 276° West 486 559 40,000  Descending Seattle Center
08:23PM 48.0206 -119.8780 274° West 487 560 40,100  Climbing Seattle Center
08:24PM 48.0297 -120.0750 272° West 491 565 40,100 -60 Level Seattle Center
08:25PM 48.0350 -120.2780 276° West 491 565 40,000 -60 Descending Seattle Center
08:26PM 48.0481 -120.4780 278° West 488 562 40,000 -60 Level Seattle Center
08:27PM 48.0661 -120.6790 279° West 487 560 39,900  Descending Seattle Center
08:28PM 48.0867 -120.8730 281° West 487 560 40,000  Climbing Seattle Center
08:29PM 48.1128 -121.0700 282° West 488 562 39,900  Descending Seattle Center
08:30PM 48.1417 -121.2670 271° West 491 565 40,000  Climbing Seattle Center
08:31PM 48.1433 -121.5060 266° West 489 563 40,000 -60 Level Seattle Center
08:32PM 48.1347 -121.7070 266° West 490 564 39,900 -120 Descending Seattle Center
08:33PM 48.1261 -121.9110 264° West 497 572 39,800 -2,040 Descending Seattle Center
08:34PM 48.1128 -122.0940 264° West 447 514 35,800 -5,040 Descending Seattle Center
08:35PM 48.1008 -122.2640 253° West 418 481 29,600 -6,180 Descending Seattle Center
08:36PM 48.0833 -122.3500 275° West 410 472 26,500 -5,520 Descending Vancouver Center
08:36PM 48.0872 -122.4180 236° Southwest 393 452 24,100 -6,000 Descending Seattle Center
08:37PM 48.0500 -122.5000 271° West 380 437 20,500 -5,460 Descending Vancouver Center
08:37PM 48.0506 -122.5570 236° Southwest 369 425 18,600 -4,320 Descending Seattle Center
08:38PM 48.0167 -122.6330 261° West 360 414 16,200 -2,580 Descending Vancouver Center
08:38PM 48.0072 -122.7220 218° Southwest 358 412 16,000 -240 Descending Seattle Center
08:39PM 47.9833 -122.7500 263° West 340 391 16,000  Level Vancouver Center
08:39PM 47.9753 -122.8460 235° Southwest 343 395 16,000 -120 Level Seattle Center
08:40PM 47.9500 -122.9000 273° West 340 391 15,900 -1,200 Descending Vancouver Center
08:40PM 47.9528 -122.9800 291° West 351 404 14,800 -2,400 Descending Seattle Center
08:41PM 47.9667 -123.0330 347° North 330 380 13,500 -2,940 Descending Vancouver Center
08:41PM 48.0114 -123.0480 North 352 405 12,600 -2,160 Descending Seattle Center
08:41PM 48.0281 -123.0460 55° Northeast 346 398 12,300 -900 Descending Seattle Center
08:42PM 48.0500 -123.0000 31° Northeast 340 391 12,000 -360 Descending Vancouver Center
08:42PM 48.0869 -122.9670 110° East 341 392 12,000  Level Seattle Center
08:43PM 48.0667 -122.8830 132° Southeast 320 368 12,000  Level Vancouver Center
08:43PM 48.0514 -122.8580 150° Southeast 318 366 12,000  Level Seattle Center
08:44PM 47.9833 -122.8000 153° Southeast 310 357 12,000  Level Vancouver Center
08:44PM 47.9622 -122.7840 153° Southeast 314 361 12,000 -240 Level Seattle Center
08:45PM 47.9167 -122.7500 139° Southeast 310 357 11,800 -600 Descending Vancouver Center
08:45PM 47.8964 -122.7240 149° Southeast 304 350 11,500 -600 Descending Seattle Center
08:46PM 47.8500 -122.6830 146° Southeast 300 345 11,200 -840 Descending Vancouver Center
08:46PM 47.8247 -122.6580 158° South 281 323 10,600 -1,140 Descending Seattle Center
08:47PM 47.7833 -122.6330 137° Southeast 280 322 10,100 -600 Descending Vancouver Center
08:47PM 47.7589 -122.5990 153° Southeast 275 316 10,000 -120 Descending Seattle Center
08:48PM 47.7167 -122.5670 143° Southeast 280 322 10,000  Level Vancouver Center
08:48PM 47.6883 -122.5350 150° Southeast 276 318 10,000  Level Seattle Center
08:49PM 47.6331 -122.4870 153° Southeast 277 319 10,000 -240 Level Seattle Center
08:50PM 47.5647 -122.4360 154° Southeast 274 315 9,600 -960 Descending Seattle Center
08:51PM 47.5008 -122.3890 154° Southeast 229 264 8,000 -1,560 Descending Seattle Center
08:52PM 47.4828 -122.3760 158° South 203 234 7,400 -2,220 Descending Seattle Center
08:52PM 47.4542 -122.3590 152° Southeast 186 214 6,100 -1,860 Descending Seattle Center
08:53PM 47.4125 -122.3260 82° East 176 203 4,400 -1,860 Descending Seattle Center
08:54PM 47.4194 -122.2570 11° North 166 191 2,400 -1,440 Descending Seattle Center
08:55PM 47.4567 -122.2460 333° Northwest 151 174 1,500 -840 Descending Seattle Center
08:56PM 47.4894 -122.2710 332° Northwest 136 157 800 17,400 Descending Seattle Center
08:57PM 47.5239 -122.2980 332° Northwest 129 148 39,000 33,180 Climbing Seattle Center